Time;durP1;ratioP1;P1;durP2;ratioP2;P2;SDS_P1;SDS_P2;PMS_P1;PMS_P2;Temp;Humidity;BMP_temperature;BMP_pressure;BME280_temperature;BME280_humidity;BME280_pressure;Samples;Min_cycle;Max_cycle;Signal;HPM_P1;HPM_P2
2021/01/28 00:01:27;;;;;;;47.35;25.58;;;2.10;99.90;;;;;;5080585;28;20032;-77
2021/01/28 00:03:53;;;;;;;47.55;26.17;;;2.10;99.90;;;;;;5074683;28;20039;-77
2021/01/28 00:06:20;;;;;;;44.83;23.73;;;2.10;99.90;;;;;;5075038;28;20040;-76
2021/01/28 00:08:46;;;;;;;40.42;23.02;;;2.10;99.90;;;;;;5074432;28;20035;-77
2021/01/28 00:11:12;;;;;;;42.78;23.27;;;2.10;99.90;;;;;;5074829;28;20036;-77
2021/01/28 00:13:38;;;;;;;44.63;25.70;;;2.10;99.90;;;;;;5074617;28;20036;-77
2021/01/28 00:16:05;;;;;;;45.50;24.63;;;2.10;99.90;;;;;;5091761;28;20039;-76
2021/01/28 00:18:32;;;;;;;41.58;22.90;;;2.10;99.90;;;;;;5074730;28;20031;-74
2021/01/28 00:20:58;;;;;;;40.63;23.33;;;2.10;99.90;;;;;;5075044;28;20044;-78
2021/01/28 00:23:24;;;;;;;47.38;23.65;;;2.20;99.90;;;;;;5076776;28;20032;-76
2021/01/28 00:25:50;;;;;;;42.95;23.65;;;2.20;99.90;;;;;;5092172;28;20029;-77
2021/01/28 00:28:20;;;;;;;44.85;23.77;;;2.20;99.90;;;;;;5075538;28;20473;-77
2021/01/28 00:30:50;;;;;;;36.90;21.92;;;2.30;99.90;;;;;;5082077;28;20039;-76
2021/01/28 00:33:20;;;;;;;40.03;23.25;;;2.20;99.90;;;;;;5087560;28;20424;-77
2021/01/28 00:35:48;;;;;;;41.25;22.33;;;2.20;99.90;;;;;;5074079;28;20500;-78
2021/01/28 00:38:36;;;;;;;44.00;24.10;;;2.20;99.90;;;;;;5074411;28;20386;-77
2021/01/28 00:41:05;;;;;;;39.03;22.23;;;2.20;99.90;;;;;;5074659;28;20048;-77
2021/01/28 00:43:32;;;;;;;43.53;23.80;;;2.30;99.90;;;;;;5074325;28;20045;-78
2021/01/28 00:46:02;;;;;;;45.30;23.80;;;2.30;99.90;;;;;;5074198;28;20024;-77
2021/01/28 00:48:29;;;;;;;42.45;22.83;;;2.30;99.90;;;;;;5073936;28;20489;-77
2021/01/28 00:50:57;;;;;;;40.30;22.60;;;2.30;99.90;;;;;;5074164;28;20398;-76
2021/01/28 00:53:24;;;;;;;42.58;22.40;;;2.30;99.90;;;;;;5081253;28;20035;-77
2021/01/28 00:55:51;;;;;;;44.33;23.73;;;2.30;99.90;;;;;;5090297;28;20056;-77
2021/01/28 00:58:26;;;;;;;39.10;21.52;;;2.30;99.90;;;;;;5072103;28;20041;-78
2021/01/28 01:00:55;;;;;;;41.47;22.08;;;2.30;99.90;;;;;;5072704;28;20040;-76
2021/01/28 01:03:23;;;;;;;42.92;23.23;;;2.30;99.90;;;;;;5072426;28;20059;-78
2021/01/28 01:05:51;;;;;;;46.03;23.45;;;2.30;99.90;;;;;;5081682;28;20024;-77
2021/01/28 01:08:26;;;;;;;47.05;24.40;;;2.30;99.90;;;;;;5078350;28;20127;-78
2021/01/28 01:11:03;;;;;;;48.53;24.85;;;2.30;99.90;;;;;;5080051;28;20040;-77
2021/01/28 01:13:41;;;;;;;49.63;24.77;;;2.40;99.90;;;;;;5079087;28;20033;-77
2021/01/28 01:16:28;;;;;;;44.63;23.45;;;2.40;99.90;;;;;;5077152;28;20505;-77
2021/01/28 01:19:16;;;;;;;46.97;24.60;;;2.40;99.90;;;;;;5073534;28;20051;-77
2021/01/28 01:21:54;;;;;;;44.58;22.73;;;2.40;99.90;;;;;;5087266;28;20056;-76
2021/01/28 01:24:24;;;;;;;48.75;23.38;;;2.40;99.90;;;;;;5089646;28;20048;-75
2021/01/28 01:26:50;;;;;;;44.08;23.23;;;2.40;99.90;;;;;;5071844;28;20032;-78
2021/01/28 01:29:17;;;;;;;48.78;24.27;;;2.50;99.90;;;;;;5087583;28;20031;-77
2021/01/28 01:32:02;;;;;;;47.33;24.13;;;2.50;99.90;;;;;;5085647;28;20493;-75
2021/01/28 01:34:35;;;;;;;46.58;24.10;;;2.50;99.90;;;;;;5078637;28;20043;-75
2021/01/28 01:37:05;;;;;;;34.90;18.20;;;2.50;99.90;;;;;;5090893;28;20043;-75
2021/01/28 01:39:34;;;;;;;44.40;23.92;;;2.50;99.90;;;;;;5091295;28;20044;-76
2021/01/28 01:42:04;;;;;;;42.25;22.00;;;2.50;99.90;;;;;;5101860;28;20599;-77
2021/01/28 01:44:31;;;;;;;42.08;21.48;;;2.50;99.90;;;;;;5072079;28;20060;-76
2021/01/28 01:47:30;;;;;;;42.03;22.30;;;2.60;99.90;;;;;;5085788;28;20044;-76
2021/01/28 01:49:57;;;;;;;44.05;23.48;;;2.50;99.90;;;;;;5077197;28;20041;-76
2021/01/28 01:52:30;;;;;;;43.08;21.50;;;2.60;99.90;;;;;;5071499;28;20037;-75
2021/01/28 01:54:57;;;;;;;42.88;20.95;;;2.60;99.90;;;;;;5082195;28;20040;-75
2021/01/28 01:57:32;;;;;;;42.28;20.60;;;2.60;99.90;;;;;;5072660;28;20059;-77
2021/01/28 02:00:14;;;;;;;45.80;22.08;;;2.60;99.90;;;;;;5077461;28;20508;-77
2021/01/28 02:03:06;;;;;;;46.25;23.30;;;2.60;99.90;;;;;;5080882;28;20063;-75
2021/01/28 02:06:01;;;;;;;44.92;21.58;;;2.60;99.90;;;;;;5078964;28;20246;-76
2021/01/28 02:08:48;;;;;;;45.80;22.10;;;2.60;99.90;;;;;;5084241;28;20042;-75
2021/01/28 02:11:50;;;;;;;42.95;21.25;;;2.70;99.90;;;;;;5009750;28;20403;-77
2021/01/28 02:14:33;;;;;;;45.70;21.08;;;2.70;99.90;;;;;;5069609;28;20486;-79
2021/01/28 02:17:12;;;;;;;40.67;20.98;;;2.70;99.90;;;;;;5071713;28;20041;-78
2021/01/28 02:20:29;;;;;;;45.67;22.13;;;2.80;99.90;;;;;;5070710;28;20040;-76
2021/01/28 02:23:16;;;;;;;44.90;21.40;;;2.80;99.90;;;;;;5070930;28;20506;-77
2021/01/28 02:25:48;;;;;;;31.90;18.77;;;2.80;99.90;;;;;;5071028;28;20068;-78
2021/01/28 02:28:16;;;;;;;40.17;22.02;;;2.80;99.90;;;;;;5087865;28;20048;-75
2021/01/28 02:30:50;;;;;;;38.20;20.70;;;2.80;99.90;;;;;;5079072;28;20032;-77
2021/01/28 02:33:44;;;;;;;38.25;20.60;;;2.80;99.90;;;;;;5072687;28;20048;-79
2021/01/28 02:36:44;;;;;;;39.28;21.60;;;2.80;99.90;;;;;;5069347;28;20037;-75
2021/01/28 02:39:29;;;;;;;40.10;19.98;;;2.90;99.90;;;;;;5083777;28;20067;-76
2021/01/28 02:42:08;;;;;;;42.42;21.20;;;2.80;99.90;;;;;;5072069;28;20035;-76
2021/01/28 02:44:35;;;;;;;42.05;21.73;;;2.80;99.90;;;;;;5072587;28;20036;-76
2021/01/28 02:47:36;;;;;;;43.50;21.65;;;2.90;99.90;;;;;;5083044;28;20051;-76
2021/01/28 02:50:24;;;;;;;43.45;21.52;;;2.90;99.90;;;;;;5087493;28;20496;-76
2021/01/28 02:52:55;;;;;;;43.38;21.63;;;2.90;99.90;;;;;;5070796;28;20039;-76
2021/01/28 02:55:28;;;;;;;46.67;22.35;;;2.90;99.90;;;;;;5076952;28;20047;-77
2021/01/28 02:57:55;;;;;;;41.10;20.85;;;2.90;99.90;;;;;;5120089;28;20047;-76
2021/01/28 03:00:34;;;;;;;41.55;20.90;;;3.00;99.90;;;;;;5085297;28;20056;-77
2021/01/28 03:03:05;;;;;;;41.45;20.42;;;2.90;99.90;;;;;;5083342;28;20390;-76
2021/01/28 03:05:43;;;;;;;70.88;34.53;;;3.00;99.90;;;;;;5085146;28;20458;-77
2021/01/28 03:08:09;;;;;;;49.08;25.88;;;3.10;99.90;;;;;;5086484;28;20041;-77
2021/01/28 03:10:36;;;;;;;78.53;36.70;;;3.00;99.90;;;;;;5071173;28;20041;-77
2021/01/28 03:13:06;;;;;;;163.68;65.88;;;3.10;99.90;;;;;;5072238;28;20382;-77
2021/01/28 03:15:53;;;;;;;88.10;38.85;;;3.10;99.90;;;;;;5071234;28;20401;-77
2021/01/28 03:18:20;;;;;;;59.28;28.73;;;3.10;99.90;;;;;;5071785;28;20063;-77
2021/01/28 03:20:47;;;;;;;171.88;72.32;;;3.10;99.90;;;;;;5070190;28;20044;-77
2021/01/28 03:23:29;;;;;;;154.73;64.20;;;3.10;99.90;;;;;;5070451;28;20051;-77
2021/01/28 03:26:13;;;;;;;118.47;52.83;;;3.10;99.90;;;;;;5075672;28;20044;-77
2021/01/28 03:28:42;;;;;;;122.38;50.88;;;3.10;99.90;;;;;;5074300;28;20040;-77
2021/01/28 03:31:15;;;;;;;78.80;37.70;;;3.10;99.90;;;;;;5074685;28;20048;-77
2021/01/28 03:33:41;;;;;;;124.18;57.35;;;3.10;99.90;;;;;;5075712;28;20417;-77
2021/01/28 03:36:09;;;;;;;237.88;95.90;;;3.10;99.90;;;;;;5088272;28;20028;-77
2021/01/28 03:38:36;;;;;;;110.32;50.80;;;3.20;99.90;;;;;;5091742;28;20039;-78
2021/01/28 03:41:03;;;;;;;70.20;34.90;;;3.20;99.90;;;;;;5075105;28;20386;-77
2021/01/28 03:43:29;;;;;;;260.33;119.60;;;3.20;99.90;;;;;;5106691;28;20420;-77
2021/01/28 03:45:56;;;;;;;114.47;57.72;;;3.30;99.90;;;;;;5080725;28;20043;-78
2021/01/28 03:48:22;;;;;;;145.25;73.47;;;3.20;99.90;;;;;;5082249;28;20036;-77
2021/01/28 03:51:05;;;;;;;47.75;26.90;;;3.20;99.90;;;;;;5090491;28;20044;-75
2021/01/28 03:53:51;;;;;;;83.78;46.55;;;3.30;99.90;;;;;;5073928;28;20036;-79
2021/01/28 03:56:20;;;;;;;36.58;20.40;;;3.30;99.90;;;;;;5075404;28;20037;-77
2021/01/28 03:58:47;;;;;;;42.95;23.50;;;3.30;99.90;;;;;;5082752;28;20041;-78
2021/01/28 04:01:45;;;;;;;54.25;29.73;;;3.30;99.90;;;;;;5060828;28;20056;-78
2021/01/28 04:04:31;;;;;;;49.25;30.08;;;3.30;99.90;;;;;;5074919;28;20366;-77
2021/01/28 04:07:20;;;;;;;40.47;23.63;;;3.30;99.90;;;;;;5074585;28;20397;-77
2021/01/28 04:09:48;;;;;;;50.33;27.33;;;3.30;99.90;;;;;;5073531;28;20048;-77
2021/01/28 04:12:19;;;;;;;84.78;48.30;;;3.30;99.90;;;;;;5073397;28;20063;-77
2021/01/28 04:15:04;;;;;;;41.30;23.23;;;3.30;99.90;;;;;;5058473;28;20033;-77
2021/01/28 04:17:32;;;;;;;43.05;22.77;;;3.30;99.90;;;;;;5073773;28;20037;-77
2021/01/28 04:20:24;;;;;;;32.58;20.23;;;3.30;99.90;;;;;;5087799;28;20048;-77
2021/01/28 04:22:52;;;;;;;41.03;21.98;;;3.30;99.90;;;;;;5091676;28;20048;-76
2021/01/28 04:25:19;;;;;;;47.40;28.00;;;3.30;99.90;;;;;;5088655;28;20044;-76
2021/01/28 04:27:48;;;;;;;39.85;23.42;;;3.30;99.90;;;;;;5092328;28;20044;-76
2021/01/28 04:30:29;;;;;;;44.08;24.02;;;3.40;99.90;;;;;;5073021;28;20048;-77
2021/01/28 04:32:59;;;;;;;45.33;26.52;;;3.30;99.90;;;;;;5072748;28;20052;-77
2021/01/28 04:35:51;;;;;;;38.58;21.27;;;3.40;99.90;;;;;;5070319;28;20458;-76
2021/01/28 04:38:20;;;;;;;45.08;24.02;;;3.40;99.90;;;;;;5072830;28;20051;-77
2021/01/28 04:41:12;;;;;;;50.88;28.05;;;3.40;99.90;;;;;;5084240;28;20048;-75
2021/01/28 04:43:41;;;;;;;57.92;33.45;;;3.40;99.90;;;;;;5087845;28;20599;-76
2021/01/28 04:46:38;;;;;;;46.35;26.38;;;3.40;99.90;;;;;;5072152;28;20386;-78
2021/01/28 04:49:28;;;;;;;44.58;24.63;;;3.40;99.90;;;;;;5074671;28;20409;-79
2021/01/28 04:52:25;;;;;;;69.72;37.90;;;3.40;99.90;;;;;;5035544;28;20479;-78
2021/01/28 04:55:13;;;;;;;38.05;22.48;;;3.40;99.90;;;;;;5074017;28;20043;-78
2021/01/28 04:57:45;;;;;;;41.60;22.10;;;3.50;99.90;;;;;;5080719;28;20043;-78
2021/01/28 05:00:15;;;;;;;34.22;19.08;;;3.50;99.90;;;;;;5089287;28;20041;-78
2021/01/28 05:03:10;;;;;;;40.33;21.27;;;3.50;99.90;;;;;;5072143;28;20045;-77
2021/01/28 05:05:51;;;;;;;41.25;24.73;;;3.60;99.90;;;;;;5096562;28;20037;-78
2021/01/28 05:08:29;;;;;;;39.28;22.45;;;3.50;99.90;;;;;;5092705;28;20040;-79
2021/01/28 05:11:34;;;;;;;41.42;22.90;;;3.50;99.90;;;;;;5086133;28;20036;-78
2021/01/28 05:14:35;;;;;;;37.95;19.48;;;3.60;99.90;;;;;;5081977;28;20043;-78
2021/01/28 05:17:26;;;;;;;50.90;28.50;;;3.60;99.90;;;;;;5073721;28;20055;-79
2021/01/28 05:20:23;;;;;;;68.50;33.65;;;3.60;99.90;;;;;;5044762;28;20607;-79
2021/01/28 05:23:21;;;;;;;45.40;24.67;;;3.60;99.90;;;;;;5087460;28;20049;-79
2021/01/28 05:25:48;;;;;;;42.55;21.55;;;3.60;99.90;;;;;;5073076;28;20027;-77
2021/01/28 05:28:31;;;;;;;41.47;24.23;;;3.70;99.90;;;;;;5083267;28;20032;-78
2021/01/28 05:31:18;;;;;;;39.35;21.17;;;3.70;99.90;;;;;;5077062;28;20052;-78
2021/01/28 05:34:08;;;;;;;51.60;30.50;;;3.70;99.90;;;;;;5086186;28;20486;-78
2021/01/28 05:37:05;;;;;;;45.47;22.40;;;3.70;99.90;;;;;;5070200;28;20032;-79
2021/01/28 05:40:10;;;;;;;58.22;29.90;;;3.70;99.90;;;;;;5089210;28;20032;-78
2021/01/28 05:42:41;;;;;;;47.70;23.27;;;3.70;99.90;;;;;;5076713;28;20478;-78
2021/01/28 05:45:22;;;;;;;41.92;22.55;;;3.70;99.90;;;;;;5080754;28;20040;-78
2021/01/28 05:48:20;;;;;;;36.50;16.27;;;3.70;99.90;;;;;;5071915;28;20390;-79
2021/01/28 05:51:28;;;;;;;41.20;21.77;;;3.70;99.90;;;;;;5084254;28;20045;-79
2021/01/28 05:54:21;;;;;;;42.75;23.02;;;3.70;99.90;;;;;;5071284;28;20370;-78
2021/01/28 05:57:11;;;;;;;49.83;24.92;;;3.70;99.90;;;;;;5090899;28;20036;-78
2021/01/28 05:59:53;;;;;;;42.00;22.77;;;3.70;99.90;;;;;;5071673;28;20424;-78
2021/01/28 06:02:50;;;;;;;56.28;31.20;;;3.70;99.90;;;;;;5071876;28;20044;-78
2021/01/28 06:05:56;;;;;;;50.13;28.73;;;3.70;99.90;;;;;;5072758;28;20043;-77
2021/01/28 06:08:59;;;;;;;36.58;18.15;;;3.70;99.90;;;;;;5090704;28;20484;-71
2021/01/28 06:11:49;;;;;;;40.47;20.45;;;3.80;99.90;;;;;;5067603;28;20043;-78
2021/01/28 06:14:27;;;;;;;46.13;24.92;;;3.70;99.90;;;;;;5080173;28;20047;-78
2021/01/28 06:17:47;;;;;;;46.60;23.35;;;3.80;99.90;;;;;;5075375;28;20430;-78
2021/01/28 06:20:41;;;;;;;53.42;27.80;;;3.80;99.90;;;;;;5073074;28;20047;-78
2021/01/28 06:23:32;;;;;;;52.58;25.70;;;3.80;99.90;;;;;;5088419;28;20401;-77
2021/01/28 06:26:58;;;;;;;39.70;21.20;;;3.70;99.90;;;;;;5087306;28;20040;-77
2021/01/28 06:29:43;;;;;;;48.40;24.50;;;3.70;99.90;;;;;;5027700;28;20048;-78
2021/01/28 06:32:24;;;;;;;48.25;23.85;;;3.80;99.90;;;;;;5089776;28;20043;-79
2021/01/28 06:35:38;;;;;;;41.88;21.58;;;3.80;99.90;;;;;;5032469;28;20073;-79
2021/01/28 06:38:41;;;;;;;43.22;22.35;;;3.80;99.90;;;;;;5030683;28;20446;-80
2021/01/28 06:41:45;;;;;;;39.35;20.70;;;3.80;99.90;;;;;;5052610;28;20040;-80
2021/01/28 06:44:27;;;;;;;39.08;19.52;;;3.90;99.90;;;;;;5088985;28;20377;-81
2021/01/28 06:47:19;;;;;;;36.22;20.25;;;3.90;99.90;;;;;;5080534;28;20047;-79
2021/01/28 06:50:19;;;;;;;36.05;19.83;;;3.90;99.90;;;;;;5093682;28;20036;-81
2021/01/28 06:52:54;;;;;;;40.97;22.35;;;3.90;99.90;;;;;;5070494;28;20040;-79
2021/01/28 06:56:22;;;;;;;40.38;24.52;;;3.90;99.90;;;;;;5072094;28;20040;-79
2021/01/28 06:59:25;;;;;;;35.97;19.77;;;3.90;99.90;;;;;;5053291;28;20045;-79
2021/01/28 07:02:26;;;;;;;43.13;23.27;;;3.90;99.90;;;;;;5093884;28;20047;-79
2021/01/28 07:05:05;;;;;;;37.33;20.17;;;3.90;99.90;;;;;;5075662;28;20071;-80
2021/01/28 07:07:37;;;;;;;31.70;19.00;;;3.90;99.90;;;;;;5076408;28;20409;-80
2021/01/28 07:10:30;;;;;;;37.85;18.25;;;3.90;99.90;;;;;;5076557;28;20056;-76
2021/01/28 07:13:31;;;;;;;34.97;20.58;;;4.00;99.90;;;;;;5075124;28;20041;-77
2021/01/28 07:16:30;;;;;;;;;;;4.00;99.90;;;;;;5085005;28;20049;-77
2021/01/28 07:19:28;;;;;;;30.23;16.30;;;3.90;99.90;;;;;;5075559;28;19908;-78
2021/01/28 07:21:55;;;;;;;40.30;21.00;;;4.00;99.90;;;;;;5071789;28;20048;-77
2021/01/28 07:24:27;;;;;;;30.35;18.77;;;4.10;99.90;;;;;;5090151;28;20056;-77
2021/01/28 07:27:01;;;;;;;37.53;20.20;;;4.00;99.90;;;;;;5086822;28;20473;-81
2021/01/28 07:29:30;;;;;;;32.90;18.23;;;4.00;99.90;;;;;;5092322;28;20039;-77
2021/01/28 07:32:07;;;;;;;33.30;17.05;;;4.10;99.90;;;;;;5075658;28;20362;-77
2021/01/28 07:35:32;;;;;;;33.30;17.13;;;4.10;99.90;;;;;;5064659;28;20044;-85
2021/01/28 07:38:29;;;;;;;30.40;16.77;;;4.10;99.90;;;;;;5090018;28;20059;-85
2021/01/28 07:41:37;;;;;;;30.58;16.33;;;4.10;99.90;;;;;;5055816;28;20037;-86
2021/01/28 07:44:40;;;;;;;32.78;16.63;;;4.10;99.90;;;;;;5020651;28;20061;-84
2021/01/28 07:47:31;;;;;;;35.10;19.33;;;4.10;99.90;;;;;;5074539;28;20037;-86
2021/01/28 07:50:31;;;;;;;30.75;17.90;;;4.10;99.90;;;;;;5073407;28;20045;-85
2021/01/28 07:53:18;;;;;;;30.77;17.13;;;4.10;99.90;;;;;;5083310;28;20335;-85
2021/01/28 07:55:45;;;;;;;30.42;18.83;;;4.10;99.90;;;;;;5081930;28;20048;-83
2021/01/28 07:58:20;;;;;;;31.77;16.40;;;4.10;99.90;;;;;;5089781;28;20359;-86
2021/01/28 08:00:49;;;;;;;28.38;15.77;;;4.10;99.90;;;;;;5075434;28;20385;-85
2021/01/28 08:03:27;;;;;;;29.85;18.58;;;4.10;99.90;;;;;;5075324;28;20044;-87
2021/01/28 08:05:56;;;;;;;34.80;17.23;;;4.10;99.90;;;;;;5095239;28;20028;-85
2021/01/28 08:08:23;;;;;;;24.85;15.05;;;4.10;99.90;;;;;;5077680;28;20036;-87
2021/01/28 08:10:52;;;;;;;30.80;16.33;;;4.10;99.90;;;;;;5088742;28;20055;-86
2021/01/28 08:13:28;;;;;;;27.15;14.65;;;4.10;99.90;;;;;;5074429;28;20492;-85
2021/01/28 08:16:02;;;;;;;28.85;17.40;;;4.10;99.90;;;;;;5074427;28;20048;-85
2021/01/28 08:18:31;;;;;;;25.42;13.93;;;4.10;99.90;;;;;;5074912;28;20036;-84
2021/01/28 08:21:09;;;;;;;22.67;12.70;;;4.10;99.90;;;;;;5074907;28;20040;-80
2021/01/28 08:23:37;;;;;;;25.05;13.98;;;4.10;99.90;;;;;;5085349;28;20044;-84
2021/01/28 08:26:07;;;;;;;26.08;13.55;;;4.10;99.90;;;;;;5091802;28;20394;-84
2021/01/28 08:28:39;;;;;;;28.17;14.68;;;4.10;99.90;;;;;;5075083;28;20028;-85
2021/01/28 08:31:25;;;;;;;28.38;14.85;;;4.20;99.90;;;;;;5074642;28;20028;-80
2021/01/28 08:34:16;;;;;;;29.50;16.13;;;4.20;99.90;;;;;;5081501;28;20051;-85
2021/01/28 08:36:55;;;;;;;31.83;17.95;;;4.20;99.90;;;;;;5074702;28;20028;-86
2021/01/28 08:39:23;;;;;;;32.72;19.60;;;4.20;99.90;;;;;;5074261;28;20386;-85
2021/01/28 08:42:11;;;;;;;23.23;13.27;;;4.30;99.90;;;;;;5074043;28;20040;-85
2021/01/28 08:44:39;;;;;;;24.20;14.05;;;4.30;99.90;;;;;;5085591;28;20044;-85
2021/01/28 08:47:13;;;;;;;22.58;11.50;;;4.30;99.90;;;;;;5091946;28;20036;-85
2021/01/28 08:49:40;;;;;;;27.00;12.82;;;4.30;99.90;;;;;;5076957;28;20047;-87
2021/01/28 08:52:11;;;;;;;25.40;13.75;;;4.30;99.90;;;;;;5073764;28;20036;-85
2021/01/28 08:54:44;;;;;;;19.08;11.23;;;4.40;99.90;;;;;;5074421;28;20044;-83
2021/01/28 08:57:14;;;;;;;24.20;15.30;;;4.40;99.90;;;;;;5074123;28;20032;-85
2021/01/28 08:59:41;;;;;;;19.27;11.90;;;4.30;99.90;;;;;;5074305;28;20095;-85
2021/01/28 09:02:13;;;;;;;18.33;10.35;;;4.30;99.90;;;;;;5074386;28;20101;-85
2021/01/28 09:04:43;;;;;;;18.45;9.77;;;4.30;99.90;;;;;;5074044;28;20041;-85
2021/01/28 09:07:10;;;;;;;22.90;12.93;;;4.30;99.90;;;;;;5073205;28;20028;-85
2021/01/28 09:09:36;;;;;;;25.95;12.10;;;4.30;99.90;;;;;;5073580;28;20040;-86
2021/01/28 09:12:27;;;;;;;15.90;9.55;;;4.30;99.90;;;;;;5073505;28;20049;-85
2021/01/28 09:15:32;;;;;;;20.40;10.68;;;4.30;99.90;;;;;;5072116;28;20036;-85
2021/01/28 09:18:06;;;;;;;17.45;9.48;;;4.30;99.90;;;;;;5030692;28;20042;-85
2021/01/28 09:20:39;;;;;;;18.60;9.55;;;4.20;99.90;;;;;;5017046;28;20052;-85
2021/01/28 09:23:14;;;;;;;19.38;10.07;;;4.30;99.90;;;;;;5029875;28;20049;-85
2021/01/28 09:25:42;;;;;;;18.27;9.95;;;4.30;99.90;;;;;;5030388;28;20033;-84
2021/01/28 09:28:14;;;;;;;18.10;10.20;;;4.30;99.90;;;;;;5031084;28;20049;-85
2021/01/28 09:30:46;;;;;;;18.73;10.23;;;4.30;99.90;;;;;;5030649;28;20455;-85
2021/01/28 09:33:21;;;;;;;15.70;10.13;;;4.30;99.90;;;;;;5030641;28;20052;-86
2021/01/28 09:36:20;;;;;;;19.33;10.73;;;4.40;99.90;;;;;;5030704;28;20061;-85
2021/01/28 09:39:34;;;;;;;171.45;66.25;;;4.40;99.90;;;;;;5030779;28;20056;-77
2021/01/28 09:42:21;;;;;;;46.80;23.20;;;4.40;99.90;;;;;;5010409;28;20045;-85
2021/01/28 09:44:51;;;;;;;64.60;30.92;;;4.50;99.90;;;;;;5031098;28;20037;-82
2021/01/28 09:47:26;;;;;;;20.52;12.40;;;4.50;99.90;;;;;;5043930;28;20040;-86
2021/01/28 09:50:02;;;;;;;51.97;24.70;;;4.50;99.90;;;;;;5094801;28;20402;-85
2021/01/28 09:52:35;;;;;;;28.80;15.75;;;4.60;99.90;;;;;;5075639;28;20028;-85
2021/01/28 09:55:06;;;;;;;65.97;30.63;;;4.60;99.90;;;;;;5072838;28;20473;-85
2021/01/28 09:57:33;;;;;;;44.22;21.70;;;4.60;99.90;;;;;;5073713;28;20029;-86
2021/01/28 09:59:59;;;;;;;47.75;23.55;;;4.70;99.90;;;;;;5083843;28;20038;-85
2021/01/28 10:02:34;;;;;;;33.78;17.77;;;4.70;99.90;;;;;;5072963;28;20036;-86
2021/01/28 10:05:01;;;;;;;25.13;13.35;;;4.70;99.90;;;;;;5088817;28;20040;-86
2021/01/28 10:07:27;;;;;;;22.90;11.85;;;4.80;99.90;;;;;;5074155;28;20032;-86
2021/01/28 10:09:53;;;;;;;17.60;11.68;;;4.90;99.90;;;;;;5072661;28;20027;-86
2021/01/28 10:12:21;;;;;;;20.55;10.13;;;4.90;99.90;;;;;;5072749;28;20044;-85
2021/01/28 10:14:48;;;;;;;21.75;12.27;;;4.90;99.90;;;;;;5072346;28;20032;-78
2021/01/28 10:17:14;;;;;;;18.15;10.60;;;5.00;99.90;;;;;;5072765;28;20024;-86
2021/01/28 10:19:43;;;;;;;19.90;10.15;;;5.00;99.90;;;;;;5072773;28;20047;-86
2021/01/28 10:22:11;;;;;;;22.33;11.48;;;5.00;99.90;;;;;;5072132;28;20036;-86
2021/01/28 10:24:37;;;;;;;18.10;11.20;;;5.10;99.90;;;;;;5087417;28;20032;-86
2021/01/28 10:27:03;;;;;;;19.33;11.07;;;5.10;99.90;;;;;;5073874;28;20047;-85
2021/01/28 10:29:30;;;;;;;22.50;11.43;;;5.20;99.90;;;;;;5071782;28;20028;-84
2021/01/28 10:31:56;;;;;;;18.75;11.63;;;5.20;99.90;;;;;;5085169;28;20473;-85
2021/01/28 10:34:22;;;;;;;16.73;9.30;;;5.20;99.90;;;;;;5072684;28;20063;-86
2021/01/28 10:36:49;;;;;;;18.27;10.60;;;5.20;99.90;;;;;;5072434;28;20496;-83
2021/01/28 10:39:17;;;;;;;18.98;11.07;;;5.20;99.90;;;;;;5072136;28;20025;-85
2021/01/28 10:41:47;;;;;;;19.92;12.10;;;5.30;99.90;;;;;;5074232;28;20461;-86
2021/01/28 10:44:13;;;;;;;18.65;11.02;;;5.20;99.90;;;;;;5089871;28;20055;-87
2021/01/28 10:46:41;;;;;;;19.23;11.07;;;5.30;99.90;;;;;;5073008;28;20037;-85
2021/01/28 10:49:07;;;;;;;16.58;10.25;;;5.30;99.90;;;;;;5079348;28;20040;-87
2021/01/28 10:51:33;;;;;;;16.23;9.98;;;5.40;99.90;;;;;;5079900;28;20044;-87
2021/01/28 10:53:59;;;;;;;18.88;11.23;;;5.40;99.90;;;;;;5082959;28;20028;-85
2021/01/28 10:56:26;;;;;;;16.88;10.60;;;5.50;99.90;;;;;;5070398;28;20107;-83
2021/01/28 10:58:52;;;;;;;16.67;10.57;;;5.50;99.90;;;;;;5071564;28;20039;-85
2021/01/28 11:01:20;;;;;;;14.73;8.85;;;5.60;99.90;;;;;;5072085;28;20484;-84
2021/01/28 11:03:46;;;;;;;16.38;9.68;;;5.60;99.90;;;;;;5077529;28;20476;-85
2021/01/28 11:06:13;;;;;;;16.50;8.45;;;5.70;99.90;;;;;;5084323;28;20044;-85
2021/01/28 11:08:39;;;;;;;17.52;10.10;;;5.70;99.90;;;;;;5072019;28;20443;-85
2021/01/28 11:11:07;;;;;;;14.38;9.18;;;5.70;99.90;;;;;;5071493;28;20036;-85
2021/01/28 11:13:33;;;;;;;14.93;9.00;;;5.70;99.90;;;;;;5071967;28;20029;-81
2021/01/28 11:15:59;;;;;;;13.00;7.68;;;5.80;99.90;;;;;;5082592;28;20032;-85
2021/01/28 11:18:26;;;;;;;14.48;8.07;;;5.80;99.90;;;;;;5081276;28;20480;-85
2021/01/28 11:20:53;;;;;;;10.52;7.35;;;5.80;99.90;;;;;;5071802;28;20390;-84
2021/01/28 11:23:19;;;;;;;13.90;8.45;;;5.90;99.90;;;;;;5071847;28;20037;-86
2021/01/28 11:25:46;;;;;;;11.43;7.35;;;6.00;99.90;;;;;;5071988;28;20029;-85
2021/01/28 11:28:12;;;;;;;9.60;6.82;;;6.00;99.90;;;;;;5082847;28;20024;-85
2021/01/28 11:30:38;;;;;;;13.80;7.05;;;6.10;99.90;;;;;;5079968;28;20469;-86
2021/01/28 11:33:07;;;;;;;9.75;6.38;;;6.10;99.90;;;;;;5071432;28;20045;-85
2021/01/28 11:35:35;;;;;;;14.18;6.47;;;6.10;99.90;;;;;;5071543;28;20041;-85
2021/01/28 11:38:04;;;;;;;11.90;6.03;;;6.20;99.90;;;;;;5081207;28;20024;-84
2021/01/28 11:40:32;;;;;;;9.60;6.70;;;6.30;99.90;;;;;;5071771;28;20044;-85
2021/01/28 11:42:59;;;;;;;9.77;5.75;;;6.40;99.90;;;;;;5071990;28;20045;-84
2021/01/28 11:45:28;;;;;;;9.02;5.40;;;6.40;99.90;;;;;;5093231;28;20043;-84
2021/01/28 11:47:55;;;;;;;9.63;6.18;;;6.50;99.90;;;;;;5076061;28;20040;-83
2021/01/28 11:50:22;;;;;;;11.75;8.27;;;6.50;99.90;;;;;;5079155;28;20040;-85
2021/01/28 11:52:48;;;;;;;13.57;10.57;;;6.50;99.90;;;;;;5088294;28;20492;-85
2021/01/28 11:55:19;;;;;;;14.52;11.18;;;6.50;99.90;;;;;;5075224;28;20024;-85
2021/01/28 11:57:45;;;;;;;11.13;9.45;;;6.60;99.90;;;;;;5075287;28;20036;-84
2021/01/28 12:00:14;;;;;;;11.90;7.25;;;6.60;99.90;;;;;;5074846;28;20032;-86
2021/01/28 12:02:41;;;;;;;9.30;6.10;;;6.70;99.90;;;;;;5074501;28;20110;-86
2021/01/28 12:05:10;;;;;;;8.15;5.07;;;6.70;99.90;;;;;;5074318;28;20040;-86
2021/01/28 12:07:37;;;;;;;7.57;6.32;;;6.80;99.90;;;;;;5075144;28;20037;-86
2021/01/28 12:10:06;;;;;;;34.03;21.73;;;6.90;99.90;;;;;;5076606;28;20354;-85
2021/01/28 12:12:32;;;;;;;52.25;25.65;;;6.90;99.90;;;;;;5075398;28;20040;-85
2021/01/28 12:14:59;;;;;;;32.55;17.10;;;7.00;99.90;;;;;;5074654;28;20029;-86
2021/01/28 12:17:25;;;;;;;29.20;16.95;;;7.00;99.90;;;;;;5075078;28;20150;-85
2021/01/28 12:19:52;;;;;;;14.93;9.35;;;7.10;99.90;;;;;;5074661;28;20032;-85
2021/01/28 12:22:18;;;;;;;16.80;10.23;;;7.20;99.90;;;;;;5074773;28;20036;-85
2021/01/28 12:24:45;;;;;;;11.40;8.23;;;7.20;99.90;;;;;;5074332;28;20472;-85
2021/01/28 12:27:11;;;;;;;8.05;6.13;;;7.20;99.90;;;;;;5079985;28;20037;-85
2021/01/28 12:29:40;;;;;;;11.63;7.22;;;7.30;99.90;;;;;;5074548;28;20035;-86
2021/01/28 12:32:07;;;;;;;8.25;5.88;;;7.30;99.90;;;;;;5078946;28;20044;-86
2021/01/28 12:34:33;;;;;;;10.35;7.72;;;7.30;99.90;;;;;;5089195;28;20041;-86
2021/01/28 12:37:00;;;;;;;8.90;5.93;;;7.30;99.90;;;;;;5076325;28;20040;-85
2021/01/28 12:39:26;;;;;;;6.68;4.85;;;7.40;99.90;;;;;;5087093;28;20051;-85
2021/01/28 12:41:53;;;;;;;8.32;5.60;;;7.50;99.90;;;;;;5088954;28;20382;-85
2021/01/28 12:44:19;;;;;;;7.80;5.20;;;7.50;99.90;;;;;;5082175;28;20033;-84
2021/01/28 12:46:46;;;;;;;8.65;5.45;;;7.60;99.90;;;;;;5074652;28;20029;-84
2021/01/28 12:49:12;;;;;;;8.88;6.47;;;7.60;99.90;;;;;;5086920;28;20025;-86
2021/01/28 12:51:38;;;;;;;7.65;4.45;;;7.70;99.90;;;;;;5082710;28;20028;-86
2021/01/28 12:54:05;;;;;;;7.82;4.82;;;7.70;99.90;;;;;;5094597;28;20038;-81
2021/01/28 12:56:31;;;;;;;7.13;5.90;;;7.70;99.90;;;;;;5075547;28;20020;-84
2021/01/28 12:58:57;;;;;;;8.68;6.70;;;7.80;99.90;;;;;;5084528;28;20484;-83
2021/01/28 13:01:24;;;;;;;13.05;10.13;;;7.80;99.90;;;;;;5087564;28;20044;-83
2021/01/28 13:03:50;;;;;;;10.55;6.75;;;7.90;99.90;;;;;;5074123;28;20028;-83
2021/01/28 13:06:16;;;;;;;9.80;6.75;;;7.90;99.90;;;;;;5077201;28;20043;-84
2021/01/28 13:08:43;;;;;;;17.52;10.63;;;8.00;99.90;;;;;;5074421;28;20401;-83
2021/01/28 13:11:13;;;;;;;19.52;14.68;;;8.00;99.90;;;;;;5074445;28;20024;-83
2021/01/28 13:13:39;;;;;;;20.08;13.98;;;8.00;99.90;;;;;;5075305;28;20040;-83
2021/01/28 13:16:06;;;;;;;11.55;9.13;;;8.00;99.90;;;;;;5078865;28;20036;-83
2021/01/28 13:18:33;;;;;;;16.17;12.63;;;8.10;99.90;;;;;;5090665;28;20048;-83
2021/01/28 13:21:00;;;;;;;18.70;14.63;;;8.20;99.90;;;;;;5074777;28;20033;-82
2021/01/28 13:23:26;;;;;;;19.23;15.07;;;8.30;99.90;;;;;;5080502;28;20450;-82
2021/01/28 13:25:52;;;;;;;17.27;13.15;;;8.40;99.90;;;;;;5077982;28;20041;-79